Time,TemperatureF,DewpointF,PressureIn,WindDirection,WindDirectionDegrees,WindSpeedMPH,WindSpeedGustMPH,Humidity,HourlyPrecipIn,Conditions,Clouds,dailyrainin,SoftwareType,DateUTC
2013-02-19 00:02:00,42.4,39.4,29.48,SSW,193,12.4,20.7,89,0.04,,,0.00,VWS V14.01,2013-02-19 05:02:00,
2013-02-19 00:03:00,42.4,39.4,29.48,SSW,193,12.4,20.7,89,0.04,,,0.00,VWS V14.01,2013-02-19 05:03:00,
2013-02-19 00:04:00,42.4,39.4,29.48,SSW,193,12.4,20.7,89,0.04,,,0.00,VWS V14.01,2013-02-19 05:04:00,
2013-02-19 00:08:00,42.6,39.6,29.48,SSW,193,12.4,20.7,89,0.04,,,0.00,VWS V14.01,2013-02-19 05:08:00,
2013-02-19 00:13:00,42.4,39.4,29.45,SSW,193,12.4,20.7,89,0.04,,,0.00,VWS V14.01,2013-02-19 05:13:00,
2013-02-19 00:19:00,42.4,39.4,29.45,South,186,11.4,19.0,89,0.04,,,0.00,VWS V14.01,2013-02-19 05:19:00,
2013-02-19 00:24:00,42.6,39.6,29.45,SSW,212,4.7,20.1,89,0.04,,,0.00,VWS V14.01,2013-02-19 05:24:00,
2013-02-19 00:30:00,42.6,39.6,29.45,SSE,151,12.4,20.7,89,0.00,,,0.00,VWS V14.01,2013-02-19 05:30:00,
2013-02-19 00:36:00,42.4,39.4,29.45,South,176,11.4,19.0,89,0.00,,,0.00,VWS V14.01,2013-02-19 05:36:00,
2013-02-19 00:42:00,42.4,39.4,29.45,SSW,202,6.0,10.1,89,0.00,,,0.00,VWS V14.01,2013-02-19 05:42:00,
2013-02-19 00:47:00,42.4,39.4,29.45,SSE,157,6.0,10.1,89,0.00,,,0.00,VWS V14.01,2013-02-19 05:47:00,
2013-02-19 00:52:00,42.4,39.4,29.45,South,187,12.4,20.7,89,0.04,,,0.04,VWS V14.01,2013-02-19 05:52:00,
2013-02-19 00:57:00,42.4,39.4,29.45,South,187,12.4,20.7,89,0.04,,,0.04,VWS V14.01,2013-02-19 05:57:00,
2013-02-19 01:03:00,42.4,39.7,29.45,SE,130,8.7,21.8,90,0.04,,,0.04,VWS V14.01,2013-02-19 06:03:00,
2013-02-19 01:08:00,42.4,39.7,29.45,SSW,198,8.7,20.1,90,0.04,,,0.04,VWS V14.01,2013-02-19 06:08:00,
2013-02-19 01:13:00,42.3,39.5,29.45,SSE,158,4.0,17.9,90,0.04,,,0.04,VWS V14.01,2013-02-19 06:13:00,
2013-02-19 01:18:00,42.3,39.5,29.45,SSE,163,10.7,27.4,90,0.04,,,0.04,VWS V14.01,2013-02-19 06:18:00,
2013-02-19 01:23:00,42.3,39.8,29.45,SW,221,7.4,15.7,91,0.08,,,0.08,VWS V14.01,2013-02-19 06:23:00,
2013-02-19 01:29:00,40.1,37.7,29.45,SW,223,15.8,26.3,91,0.08,,,0.08,VWS V14.01,2013-02-19 06:29:00,
2013-02-19 01:36:00,37.9,34.1,29.45,WSW,257,11.4,21.8,86,0.12,,,0.12,VWS V14.01,2013-02-19 06:36:00,
2013-02-19 01:41:00,37.4,33.3,29.48,SSW,207,9.4,16.8,85,0.12,,,0.12,VWS V14.01,2013-02-19 06:41:00,
2013-02-19 01:47:00,36.7,32.6,29.48,WSW,251,12.4,22.9,85,0.12,,,0.12,VWS V14.01,2013-02-19 06:47:00,
2013-02-19 01:53:00,35.8,31.4,29.48,WSW,244,13.1,21.8,84,0.08,,,0.12,VWS V14.01,2013-02-19 06:53:00,
2013-02-19 01:58:00,35.2,30.9,29.48,West,265,9.4,20.1,84,0.08,,,0.12,VWS V14.01,2013-02-19 06:58:00,
2013-02-19 02:03:00,34.9,30.5,29.48,West,267,7.4,14.5,84,0.08,,,0.12,VWS V14.01,2013-02-19 07:03:00,
2013-02-19 02:09:00,34.5,30.2,29.48,WSW,238,5.4,12.3,84,0.08,,,0.12,VWS V14.01,2013-02-19 07:09:00,
2013-02-19 02:14:00,34.3,30.0,29.48,SW,224,8.7,14.5,84,0.08,,,0.12,VWS V14.01,2013-02-19 07:14:00,
2013-02-19 02:20:00,34.2,30.1,29.48,WSW,251,5.4,14.5,85,0.08,,,0.12,VWS V14.01,2013-02-19 07:20:00,
2013-02-19 02:26:00,34.2,30.1,29.51,SW,216,4.0,15.7,85,0.08,,,0.16,VWS V14.01,2013-02-19 07:26:00,
2013-02-19 02:32:00,34.2,30.4,29.51,West,267,6.0,19.0,86,0.08,,,0.16,VWS V14.01,2013-02-19 07:32:00,
2013-02-19 02:38:00,34.3,30.6,29.51,WNW,300,6.0,10.1,86,0.04,,,0.16,VWS V14.01,2013-02-19 07:38:00,
2013-02-19 02:43:00,34.3,30.9,29.51,WSW,242,4.7,7.8,87,0.04,,,0.16,VWS V14.01,2013-02-19 07:43:00,
2013-02-19 02:48:00,34.3,30.9,29.51,WSW,242,4.7,7.8,87,0.04,,,0.16,VWS V14.01,2013-02-19 07:48:00,
2013-02-19 02:53:00,34.0,30.8,29.51,WSW,242,4.7,7.8,88,0.04,,,0.16,VWS V14.01,2013-02-19 07:53:00,
2013-02-19 02:58:00,33.6,30.5,29.51,WSW,242,4.7,7.8,88,0.04,,,0.16,VWS V14.01,2013-02-19 07:58:00,
2013-02-19 03:03:00,33.6,30.5,29.51,SW,214,8.7,14.5,88,0.04,,,0.16,VWS V14.01,2013-02-19 08:03:00,
2013-02-19 03:08:00,33.4,30.3,29.51,WSW,254,9.4,15.7,88,0.04,,,0.16,VWS V14.01,2013-02-19 08:08:00,
2013-02-19 03:14:00,33.3,30.1,29.54,West,269,8.7,20.7,88,0.04,,,0.16,VWS V14.01,2013-02-19 08:14:00,
2013-02-19 03:19:00,32.9,29.7,29.54,SW,223,7.4,12.3,88,0.04,,,0.16,VWS V14.01,2013-02-19 08:19:00,
2013-02-19 03:26:00,32.5,29.1,29.54,SW,227,13.1,21.8,87,0.00,,,0.16,VWS V14.01,2013-02-19 08:26:00,
2013-02-19 03:31:00,32.4,28.6,29.54,WSW,240,12.4,20.7,86,0.00,,,0.16,VWS V14.01,2013-02-19 08:31:00,
2013-02-19 03:37:00,32.2,28.5,29.54,WSW,240,12.4,20.7,86,0.00,,,0.16,VWS V14.01,2013-02-19 08:37:00,
2013-02-19 03:43:00,32.2,28.5,29.54,WSW,240,12.4,20.7,86,0.00,,,0.16,VWS V14.01,2013-02-19 08:43:00,
2013-02-19 03:49:00,32.2,28.5,29.54,WSW,240,12.4,20.7,86,0.00,,,0.16,VWS V14.01,2013-02-19 08:49:00,
2013-02-19 03:56:00,32.2,28.5,29.54,WSW,240,12.4,20.7,86,0.00,,,0.16,VWS V14.01,2013-02-19 08:56:00,
2013-02-19 04:01:00,32.2,28.5,29.54,WSW,240,12.4,20.7,86,0.00,,,0.16,VWS V14.01,2013-02-19 09:01:00,
2013-02-19 04:06:00,32.2,28.5,29.54,WSW,240,12.4,20.7,86,0.00,,,0.16,VWS V14.01,2013-02-19 09:06:00,
2013-02-19 04:11:00,32.2,28.5,29.57,WSW,240,12.4,20.7,86,0.00,,,0.16,VWS V14.01,2013-02-19 09:11:00,
2013-02-19 04:16:00,32.2,28.5,29.57,WSW,240,12.4,20.7,86,0.00,,,0.16,VWS V14.01,2013-02-19 09:16:00,
2013-02-19 04:22:00,32.2,28.5,29.57,WSW,240,12.4,20.7,86,0.00,,,0.16,VWS V14.01,2013-02-19 09:22:00,
2013-02-19 04:27:00,32.2,28.5,29.57,WSW,240,12.4,20.7,86,0.00,,,0.16,VWS V14.01,2013-02-19 09:27:00,
2013-02-19 04:32:00,32.2,28.5,29.57,WSW,240,12.4,20.7,86,0.00,,,0.16,VWS V14.01,2013-02-19 09:32:00,
2013-02-19 04:37:00,32.2,28.5,29.57,WSW,240,12.4,20.7,86,0.00,,,0.16,VWS V14.01,2013-02-19 09:37:00,
2013-02-19 04:43:00,32.2,28.5,29.57,WSW,240,9.4,15.7,86,0.00,,,0.16,VWS V14.01,2013-02-19 09:43:00,
2013-02-19 04:49:00,32.2,28.5,29.57,SW,232,12.1,20.1,86,0.00,,,0.16,VWS V14.01,2013-02-19 09:49:00,
2013-02-19 04:54:00,29.5,25.5,29.57,SW,232,12.1,20.1,85,0.00,,,0.16,VWS V14.01,2013-02-19 09:54:00,
2013-02-19 04:59:00,29.3,25.4,29.57,SW,228,13.1,21.8,85,0.00,,,0.16,VWS V14.01,2013-02-19 09:59:00,
2013-02-19 05:04:00,29.3,25.4,29.57,WSW,238,12.4,20.7,85,0.00,,,0.16,VWS V14.01,2013-02-19 10:04:00,
2013-02-19 05:11:00,29.3,25.4,29.57,WSW,246,13.1,21.8,85,0.00,,,0.16,VWS V14.01,2013-02-19 10:11:00,
2013-02-19 05:17:00,28.6,24.6,29.57,SSW,202,12.4,20.7,85,0.00,,,0.16,VWS V14.01,2013-02-19 10:17:00,
2013-02-19 05:22:00,28.2,24.3,29.57,SW,230,13.1,21.8,85,0.00,,,0.16,VWS V14.01,2013-02-19 10:22:00,
2013-02-19 05:27:00,28.2,24.3,29.60,WSW,244,12.1,20.1,85,0.00,,,0.16,VWS V14.01,2013-02-19 10:27:00,
2013-02-19 05:32:00,27.9,23.7,29.60,WSW,241,13.8,22.9,84,0.00,,,0.16,VWS V14.01,2013-02-19 10:32:00,
2013-02-19 05:37:00,27.7,23.2,29.60,WSW,257,8.7,22.9,83,0.00,,,0.16,VWS V14.01,2013-02-19 10:37:00,
2013-02-19 05:42:00,27.5,23.0,29.60,SW,233,12.4,20.7,83,0.00,,,0.16,VWS V14.01,2013-02-19 10:42:00,
2013-02-19 05:47:00,27.1,22.7,29.60,WSW,238,15.1,25.2,83,0.00,,,0.16,VWS V14.01,2013-02-19 10:47:00,
2013-02-19 05:52:00,27.0,22.2,29.60,SW,233,12.1,20.7,82,0.00,,,0.16,VWS V14.01,2013-02-19 10:52:00,
2013-02-19 05:58:00,27.0,22.2,29.60,SW,235,10.7,17.9,82,0.00,,,0.16,VWS V14.01,2013-02-19 10:58:00,
2013-02-19 06:03:00,26.8,22.0,29.60,SW,231,12.1,20.1,82,0.00,,,0.16,VWS V14.01,2013-02-19 11:03:00,
2013-02-19 06:09:00,26.6,21.9,29.63,SW,230,9.4,15.7,82,0.00,,,0.16,VWS V14.01,2013-02-19 11:09:00,
2013-02-19 06:16:00,26.1,21.0,29.63,WSW,245,11.4,19.0,81,0.00,,,0.16,VWS V14.01,2013-02-19 11:16:00,
2013-02-19 06:21:00,26.1,21.0,29.63,SW,235,8.7,19.0,81,0.00,,,0.16,VWS V14.01,2013-02-19 11:21:00,
2013-02-19 06:27:00,25.9,20.9,29.63,SW,223,8.7,16.8,81,0.00,,,0.16,VWS V14.01,2013-02-19 11:27:00,
2013-02-19 06:33:00,25.7,20.4,29.63,WNW,285,10.1,16.8,80,0.00,,,0.16,VWS V14.01,2013-02-19 11:33:00,
2013-02-19 06:39:00,25.3,20.0,29.63,SW,234,9.4,19.0,80,0.00,,,0.16,VWS V14.01,2013-02-19 11:39:00,
2013-02-19 06:44:00,25.3,20.0,29.63,WSW,240,12.4,20.7,80,0.00,,,0.16,VWS V14.01,2013-02-19 11:44:00,
2013-02-19 06:49:00,25.3,20.0,29.63,WSW,245,8.7,20.7,80,0.00,,,0.16,VWS V14.01,2013-02-19 11:49:00,
2013-02-19 06:56:00,25.3,20.0,29.63,WSW,244,12.1,20.1,80,0.00,,,0.16,VWS V14.01,2013-02-19 11:56:00,
2013-02-19 07:01:00,25.3,19.8,29.63,WSW,237,9.4,20.1,79,0.00,,,0.16,VWS V14.01,2013-02-19 12:01:00,
2013-02-19 07:06:00,25.3,19.8,29.63,WSW,240,8.7,20.7,79,0.00,,,0.16,VWS V14.01,2013-02-19 12:06:00,
2013-02-19 07:12:00,24.6,19.0,29.63,WSW,237,13.1,21.8,79,0.00,,,0.16,VWS V14.01,2013-02-19 12:12:00,
2013-02-19 07:17:00,24.6,19.0,29.63,SW,226,8.7,16.8,79,0.00,,,0.16,VWS V14.01,2013-02-19 12:17:00,
2013-02-19 07:23:00,24.6,19.0,29.63,WSW,250,6.0,20.7,79,0.00,,,0.16,VWS V14.01,2013-02-19 12:23:00,
2013-02-19 07:28:00,24.6,19.0,29.66,WSW,237,9.4,25.2,79,0.00,,,0.16,VWS V14.01,2013-02-19 12:28:00,
2013-02-19 07:33:00,24.3,18.4,29.66,WSW,239,11.4,21.8,78,0.00,,,0.16,VWS V14.01,2013-02-19 12:33:00,
2013-02-19 07:39:00,24.1,18.2,29.66,WSW,245,13.1,21.8,78,0.00,,,0.16,VWS V14.01,2013-02-19 12:39:00,
2013-02-19 07:44:00,23.7,17.6,29.66,SW,229,9.4,15.7,77,0.00,,,0.16,VWS V14.01,2013-02-19 12:44:00,
2013-02-19 07:50:00,23.7,17.6,29.66,SW,232,6.0,19.0,77,0.00,,,0.16,VWS V14.01,2013-02-19 12:50:00,
2013-02-19 07:55:00,23.4,17.2,29.66,SW,225,8.7,20.7,77,0.00,,,0.16,VWS V14.01,2013-02-19 12:55:00,
2013-02-19 08:01:00,23.4,17.2,29.66,WSW,241,11.4,21.8,77,0.00,,,0.16,VWS V14.01,2013-02-19 13:01:00,
2013-02-19 08:06:00,23.4,17.2,29.66,SW,224,9.4,21.8,77,0.00,,,0.16,VWS V14.01,2013-02-19 13:06:00,
2013-02-19 08:11:00,23.4,17.2,29.66,WSW,240,8.7,24.0,77,0.00,,,0.16,VWS V14.01,2013-02-19 13:11:00,
2013-02-19 08:16:00,22.8,16.4,29.66,West,259,12.1,20.7,76,0.00,,,0.16,VWS V14.01,2013-02-19 13:16:00,
2013-02-19 08:21:00,22.8,16.4,29.66,SSW,213,12.4,21.8,76,0.00,,,0.16,VWS V14.01,2013-02-19 13:21:00,
2013-02-19 08:26:00,22.6,16.2,29.69,SW,236,8.7,21.8,76,0.00,,,0.16,VWS V14.01,2013-02-19 13:26:00,
2013-02-19 08:31:00,22.5,16.0,29.69,WSW,248,9.4,19.0,76,0.00,,,0.16,VWS V14.01,2013-02-19 13:31:00,
2013-02-19 08:37:00,22.5,16.4,29.69,West,261,8.7,26.3,77,0.00,,,0.16,VWS V14.01,2013-02-19 13:37:00,
2013-02-19 08:43:00,22.5,16.4,29.69,WSW,241,8.7,19.0,77,0.00,,,0.16,VWS V14.01,2013-02-19 13:43:00,
2013-02-19 08:49:00,22.3,16.2,29.69,SW,225,11.4,19.0,77,0.00,,,0.16,VWS V14.01,2013-02-19 13:49:00,
2013-02-19 08:54:00,22.1,16.0,29.69,WSW,238,10.1,20.1,77,0.00,,,0.16,VWS V14.01,2013-02-19 13:54:00,
2013-02-19 09:01:00,21.6,15.8,29.69,WSW,249,8.1,16.8,78,0.00,,,0.16,VWS V14.01,2013-02-19 14:01:00,
2013-02-19 09:07:00,21.7,15.9,29.69,WSW,245,8.7,15.7,78,0.00,,,0.16,VWS V14.01,2013-02-19 14:07:00,
2013-02-19 09:12:00,21.9,16.4,29.69,SW,226,12.1,20.1,79,0.00,,,0.16,VWS V14.01,2013-02-19 14:12:00,
2013-02-19 09:18:00,21.6,16.1,29.69,SW,235,14.4,24.0,79,0.00,,,0.16,VWS V14.01,2013-02-19 14:18:00,
2013-02-19 09:24:00,21.4,15.6,29.72,SSW,212,9.4,19.0,78,0.00,,,0.16,VWS V14.01,2013-02-19 14:24:00,
2013-02-19 09:29:00,21.6,15.8,29.72,SSW,212,9.4,22.9,78,0.00,,,0.16,VWS V14.01,2013-02-19 14:29:00,
2013-02-19 09:34:00,21.2,15.4,29.72,SW,228,9.4,25.2,78,0.00,,,0.16,VWS V14.01,2013-02-19 14:34:00,
2013-02-19 09:40:00,21.2,15.4,29.72,SW,236,8.7,17.9,78,0.00,,,0.16,VWS V14.01,2013-02-19 14:40:00,
2013-02-19 09:46:00,21.4,15.3,29.72,SW,236,11.4,19.0,77,0.00,,,0.16,VWS V14.01,2013-02-19 14:46:00,
2013-02-19 09:51:00,21.6,15.5,29.72,SW,231,12.4,20.7,77,0.00,,,0.16,VWS V14.01,2013-02-19 14:51:00,
2013-02-19 09:56:00,21.9,15.8,29.72,SW,234,9.4,21.8,77,0.00,,,0.16,VWS V14.01,2013-02-19 14:56:00,
2013-02-19 10:02:00,22.1,16.0,29.72,SW,229,9.4,15.7,77,0.00,,,0.16,VWS V14.01,2013-02-19 15:02:00,
2013-02-19 10:07:00,22.6,16.2,29.72,SW,225,12.4,20.7,76,0.00,,,0.16,VWS V14.01,2013-02-19 15:07:00,
2013-02-19 10:12:00,22.6,15.9,29.72,WSW,239,9.4,20.1,75,0.00,,,0.16,VWS V14.01,2013-02-19 15:12:00,
2013-02-19 10:18:00,22.1,15.1,29.72,SW,222,9.4,20.1,74,0.00,,,0.16,VWS V14.01,2013-02-19 15:18:00,
2013-02-19 10:23:00,22.3,15.0,29.72,WSW,248,8.1,13.4,73,0.00,,,0.16,VWS V14.01,2013-02-19 15:23:00,
2013-02-19 10:28:00,22.3,14.6,29.72,SW,231,12.1,20.7,72,0.00,,,0.16,VWS V14.01,2013-02-19 15:28:00,
2013-02-19 10:34:00,22.5,14.8,29.72,SW,236,12.4,20.7,72,0.00,,,0.16,VWS V14.01,2013-02-19 15:34:00,
2013-02-19 10:39:00,22.1,13.8,29.72,SW,231,7.4,15.7,70,0.00,,,0.16,VWS V14.01,2013-02-19 15:39:00,
2013-02-19 10:45:00,21.9,13.6,29.72,WSW,254,11.4,21.8,70,0.00,,,0.16,VWS V14.01,2013-02-19 15:45:00,
2013-02-19 10:51:00,22.6,14.3,29.72,WSW,243,8.1,20.1,70,0.00,,,0.16,VWS V14.01,2013-02-19 15:51:00,
2013-02-19 10:57:00,22.8,14.2,29.75,WSW,242,8.1,20.1,69,0.00,,,0.16,VWS V14.01,2013-02-19 15:57:00,
2013-02-19 11:02:00,23.7,15.4,29.75,West,259,9.4,20.1,70,0.00,,,0.16,VWS V14.01,2013-02-19 16:02:00,
2013-02-19 11:08:00,23.7,15.1,29.75,WSW,240,11.4,21.8,69,0.00,,,0.16,VWS V14.01,2013-02-19 16:08:00,
2013-02-19 11:14:00,24.1,15.4,29.75,WSW,251,9.4,15.7,69,0.00,,,0.16,VWS V14.01,2013-02-19 16:14:00,
2013-02-19 11:20:00,23.5,14.6,29.75,SW,233,9.4,19.0,68,0.00,,,0.16,VWS V14.01,2013-02-19 16:20:00,
2013-02-19 11:26:00,22.8,13.2,29.75,West,265,12.4,20.7,66,0.00,,,0.16,VWS V14.01,2013-02-19 16:26:00,
2013-02-19 11:32:00,22.6,13.4,29.75,West,279,8.7,19.0,67,0.00,,,0.16,VWS V14.01,2013-02-19 16:32:00,
2013-02-19 11:37:00,22.6,13.7,29.75,West,266,9.4,15.7,68,0.00,,,0.16,VWS V14.01,2013-02-19 16:37:00,
2013-02-19 11:43:00,22.5,13.5,29.75,SW,224,12.1,21.8,68,0.00,,,0.16,VWS V14.01,2013-02-19 16:43:00,
2013-02-19 11:49:00,23.5,14.2,29.75,SW,216,8.1,19.0,67,0.00,,,0.16,VWS V14.01,2013-02-19 16:49:00,
2013-02-19 11:54:00,23.0,13.4,29.78,WSW,258,8.7,21.8,66,0.00,,,0.16,VWS V14.01,2013-02-19 16:54:00,
2013-02-19 11:59:00,23.2,12.8,29.78,WSW,243,9.4,17.9,64,0.00,,,0.16,VWS V14.01,2013-02-19 16:59:00,
2013-02-19 12:04:00,23.2,13.2,29.78,SW,231,11.4,20.1,65,0.00,,,0.16,VWS V14.01,2013-02-19 17:04:00,
2013-02-19 12:10:00,23.5,13.5,29.78,SW,235,10.7,20.1,65,0.00,,,0.16,VWS V14.01,2013-02-19 17:10:00,
2013-02-19 12:16:00,23.9,14.2,29.78,WSW,237,12.4,24.0,66,0.00,,,0.16,VWS V14.01,2013-02-19 17:16:00,
2013-02-19 12:21:00,23.9,14.2,29.78,SW,233,10.7,17.9,66,0.00,,,0.16,VWS V14.01,2013-02-19 17:21:00,
2013-02-19 12:27:00,24.4,13.3,29.78,SW,228,13.1,21.8,62,0.00,,,0.16,VWS V14.01,2013-02-19 17:27:00,
2013-02-19 12:32:00,24.1,12.6,29.78,WSW,241,6.0,20.1,61,0.00,,,0.16,VWS V14.01,2013-02-19 17:32:00,
2013-02-19 12:38:00,23.7,12.2,29.78,WSW,249,8.7,20.7,61,0.00,,,0.16,VWS V14.01,2013-02-19 17:38:00,
2013-02-19 12:44:00,23.0,11.9,29.78,WSW,248,11.4,19.0,62,0.00,,,0.16,VWS V14.01,2013-02-19 17:44:00,
2013-02-19 12:49:00,22.8,11.4,29.78,WSW,237,11.4,21.8,61,0.00,,,0.16,VWS V14.01,2013-02-19 17:49:00,
2013-02-19 12:54:00,23.4,11.9,29.78,WSW,240,12.1,20.1,61,0.00,,,0.16,VWS V14.01,2013-02-19 17:54:00,
2013-02-19 12:59:00,23.4,11.9,29.78,WSW,243,11.4,20.7,61,0.00,,,0.16,VWS V14.01,2013-02-19 17:59:00,
2013-02-19 13:04:00,23.9,12.4,29.78,WNW,294,5.4,14.5,61,0.00,,,0.16,VWS V14.01,2013-02-19 18:04:00,
2013-02-19 13:09:00,23.4,11.5,29.78,WSW,247,8.7,20.1,60,0.00,,,0.16,VWS V14.01,2013-02-19 18:09:00,
2013-02-19 13:14:00,22.5,10.7,29.78,WSW,251,15.1,25.2,60,0.00,,,0.16,VWS V14.01,2013-02-19 18:14:00,
2013-02-19 13:22:00,22.3,11.2,29.78,SW,223,11.4,27.4,62,0.00,,,0.16,VWS V14.01,2013-02-19 18:22:00,
2013-02-19 13:27:00,23.0,12.6,29.80,WSW,247,12.1,20.1,64,0.00,,,0.16,VWS V14.01,2013-02-19 18:27:00,
2013-02-19 13:33:00,23.7,13.0,29.80,WSW,238,10.1,19.0,63,0.00,,,0.16,VWS V14.01,2013-02-19 18:33:00,
2013-02-19 13:38:00,22.8,11.8,29.80,WSW,248,12.1,24.0,62,0.00,,,0.16,VWS V14.01,2013-02-19 18:38:00,
2013-02-19 13:44:00,22.3,10.9,29.80,WSW,258,8.7,20.1,61,0.00,,,0.16,VWS V14.01,2013-02-19 18:44:00,
2013-02-19 13:49:00,21.9,10.6,29.80,West,259,6.7,16.8,61,0.00,,,0.16,VWS V14.01,2013-02-19 18:49:00,
2013-02-19 13:56:00,21.7,10.7,29.80,WSW,251,13.1,21.8,62,0.00,,,0.16,VWS V14.01,2013-02-19 18:56:00,
2013-02-19 14:02:00,21.4,10.0,29.80,SW,236,12.4,20.7,61,0.00,,,0.16,VWS V14.01,2013-02-19 19:02:00,
2013-02-19 14:07:00,21.7,10.7,29.80,West,266,7.4,13.4,62,0.00,,,0.16,VWS V14.01,2013-02-19 19:07:00,
2013-02-19 14:13:00,21.4,10.0,29.80,SW,226,9.4,19.0,61,0.00,,,0.16,VWS V14.01,2013-02-19 19:13:00,
2013-02-19 14:19:00,21.2,9.9,29.80,WSW,240,6.0,19.0,61,0.00,,,0.16,VWS V14.01,2013-02-19 19:19:00,
2013-02-19 14:24:00,21.4,10.0,29.80,West,269,6.0,10.1,61,0.00,,,0.16,VWS V14.01,2013-02-19 19:24:00,
2013-02-19 14:30:00,21.0,10.1,29.80,WSW,237,8.1,19.0,62,0.00,,,0.16,VWS V14.01,2013-02-19 19:30:00,
2013-02-19 14:36:00,20.8,9.9,29.80,WSW,246,12.4,20.7,62,0.00,,,0.16,VWS V14.01,2013-02-19 19:36:00,
2013-02-19 14:41:00,20.3,9.4,29.80,West,269,9.4,20.7,62,0.00,,,0.16,VWS V14.01,2013-02-19 19:41:00,
2013-02-19 14:47:00,20.5,9.6,29.80,SW,226,9.4,20.1,62,0.00,,,0.16,VWS V14.01,2013-02-19 19:47:00,
2013-02-19 14:53:00,20.3,9.4,29.80,WSW,238,12.4,20.7,62,0.00,,,0.16,VWS V14.01,2013-02-19 19:53:00,
2013-02-19 14:58:00,20.3,9.4,29.83,SW,225,6.0,20.1,62,0.00,,,0.16,VWS V14.01,2013-02-19 19:58:00,
2013-02-19 15:03:00,20.3,9.4,29.83,WSW,257,6.0,14.5,62,0.00,,,0.16,VWS V14.01,2013-02-19 20:03:00,
2013-02-19 15:08:00,20.5,9.9,29.83,SW,232,9.4,19.0,63,0.00,,,0.16,VWS V14.01,2013-02-19 20:08:00,
2013-02-19 15:13:00,20.3,10.1,29.83,SW,231,6.0,10.1,64,0.00,,,0.16,VWS V14.01,2013-02-19 20:13:00,
2013-02-19 15:19:00,20.1,9.9,29.83,WSW,250,8.7,14.5,64,0.00,,,0.16,VWS V14.01,2013-02-19 20:19:00,
2013-02-19 15:24:00,20.1,9.9,29.83,WSW,245,8.7,15.7,64,0.00,,,0.16,VWS V14.01,2013-02-19 20:24:00,
2013-02-19 15:29:00,19.9,9.7,29.83,SW,234,9.4,15.7,64,0.00,,,0.16,VWS V14.01,2013-02-19 20:29:00,
2013-02-19 15:34:00,19.9,9.7,29.83,WSW,244,9.4,15.7,64,0.00,,,0.16,VWS V14.01,2013-02-19 20:34:00,
2013-02-19 15:41:00,19.6,9.4,29.86,SW,227,12.4,20.7,64,0.00,,,0.16,VWS V14.01,2013-02-19 20:41:00,
2013-02-19 15:47:00,19.4,9.6,29.86,WSW,251,8.1,14.5,65,0.00,,,0.16,VWS V14.01,2013-02-19 20:47:00,
2013-02-19 15:52:00,19.6,9.7,29.86,SW,236,7.4,15.7,65,0.00,,,0.16,VWS V14.01,2013-02-19 20:52:00,
2013-02-19 15:57:00,19.4,9.9,29.86,WSW,239,9.4,15.7,66,0.00,,,0.16,VWS V14.01,2013-02-19 20:57:00,
2013-02-19 16:03:00,19.2,9.7,29.86,WSW,240,9.4,15.7,66,0.00,,,0.16,VWS V14.01,2013-02-19 21:03:00,
2013-02-19 16:09:00,19.6,10.1,29.86,WSW,243,8.7,17.9,66,0.00,,,0.16,VWS V14.01,2013-02-19 21:09:00,
2013-02-19 16:14:00,19.6,10.4,29.86,WSW,239,9.4,15.7,67,0.00,,,0.16,VWS V14.01,2013-02-19 21:14:00,
2013-02-19 16:19:00,19.8,10.6,29.86,WSW,243,8.1,15.7,67,0.00,,,0.16,VWS V14.01,2013-02-19 21:19:00,
2013-02-19 16:24:00,19.8,10.9,29.86,WSW,240,8.1,13.4,68,0.00,,,0.16,VWS V14.01,2013-02-19 21:24:00,
2013-02-19 16:29:00,19.4,10.6,29.86,SW,236,9.4,15.7,68,0.00,,,0.16,VWS V14.01,2013-02-19 21:29:00,
2013-02-19 16:36:00,19.0,10.2,29.86,WSW,240,11.4,20.1,68,0.00,,,0.16,VWS V14.01,2013-02-19 21:36:00,
2013-02-19 16:41:00,18.7,10.2,29.89,SW,231,11.4,19.0,69,0.00,,,0.16,VWS V14.01,2013-02-19 21:41:00,
2013-02-19 16:46:00,18.5,10.0,29.89,WSW,255,9.4,15.7,69,0.00,,,0.16,VWS V14.01,2013-02-19 21:46:00,
2013-02-19 16:52:00,18.3,10.2,29.89,SW,234,8.7,15.7,70,0.00,,,0.16,VWS V14.01,2013-02-19 21:52:00,
2013-02-19 16:57:00,18.3,10.2,29.89,SW,232,9.4,15.7,70,0.00,,,0.16,VWS V14.01,2013-02-19 21:57:00,
2013-02-19 17:02:00,18.1,10.3,29.89,SW,234,8.1,19.0,71,0.00,,,0.16,VWS V14.01,2013-02-19 22:02:00,
2013-02-19 17:08:00,18.1,10.3,29.89,SW,233,8.1,20.1,71,0.00,,,0.16,VWS V14.01,2013-02-19 22:08:00,
2013-02-19 17:13:00,18.0,10.2,29.89,WSW,237,12.1,20.1,71,0.00,,,0.16,VWS V14.01,2013-02-19 22:13:00,
2013-02-19 17:18:00,17.8,10.3,29.89,SW,216,8.1,15.7,72,0.00,,,0.16,VWS V14.01,2013-02-19 22:18:00,
2013-02-19 17:24:00,17.8,10.3,29.89,WSW,248,11.4,19.0,72,0.00,,,0.16,VWS V14.01,2013-02-19 22:24:00,
2013-02-19 17:29:00,17.6,10.4,29.89,SW,235,8.1,20.1,73,0.00,,,0.16,VWS V14.01,2013-02-19 22:29:00,
2013-02-19 17:36:00,17.4,10.3,29.89,WSW,240,9.4,15.7,73,0.00,,,0.16,VWS V14.01,2013-02-19 22:36:00,
2013-02-19 17:41:00,17.4,10.3,29.92,WSW,239,9.4,15.7,73,0.00,,,0.16,VWS V14.01,2013-02-19 22:41:00,
2013-02-19 17:46:00,17.4,10.6,29.92,SW,221,8.1,16.8,74,0.00,,,0.16,VWS V14.01,2013-02-19 22:46:00,
2013-02-19 17:51:00,17.1,10.2,29.92,SW,233,9.4,20.1,74,0.00,,,0.16,VWS V14.01,2013-02-19 22:51:00,
2013-02-19 17:57:00,16.9,10.0,29.92,SW,231,9.4,20.1,74,0.00,,,0.16,VWS V14.01,2013-02-19 22:57:00,
2013-02-19 18:03:00,16.9,10.0,29.92,WSW,250,8.7,15.7,74,0.00,,,0.16,VWS V14.01,2013-02-19 23:03:00,
2013-02-19 18:08:00,16.9,10.3,29.92,SW,227,8.7,15.7,75,0.00,,,0.16,VWS V14.01,2013-02-19 23:08:00,
2013-02-19 18:14:00,16.7,10.2,29.92,WSW,237,8.1,14.5,75,0.00,,,0.16,VWS V14.01,2013-02-19 23:14:00,
2013-02-19 18:19:00,16.7,10.2,29.92,SW,232,8.7,14.5,75,0.00,,,0.16,VWS V14.01,2013-02-19 23:19:00,
2013-02-19 18:24:00,16.7,10.2,29.92,SW,236,7.4,14.5,75,0.00,,,0.16,VWS V14.01,2013-02-19 23:24:00,
2013-02-19 18:29:00,16.7,10.2,29.92,WSW,242,10.1,16.8,75,0.00,,,0.16,VWS V14.01,2013-02-19 23:29:00,
2013-02-19 18:37:00,16.5,10.0,29.92,SW,234,9.4,15.7,75,0.00,,,0.16,VWS V14.01,2013-02-19 23:37:00,
2013-02-19 18:42:00,16.5,10.3,29.95,WSW,248,8.1,15.7,76,0.00,,,0.16,VWS V14.01,2013-02-19 23:42:00,
2013-02-19 18:47:00,16.3,10.1,29.95,WSW,255,8.1,20.1,76,0.00,,,0.16,VWS V14.01,2013-02-19 23:47:00,
2013-02-19 18:52:00,16.2,9.9,29.95,WSW,241,9.4,15.7,76,0.00,,,0.16,VWS V14.01,2013-02-19 23:52:00,
2013-02-19 18:57:00,16.2,9.9,29.95,SW,230,8.1,14.5,76,0.00,,,0.16,VWS V14.01,2013-02-19 23:57:00,
2013-02-19 19:02:00,16.2,9.9,29.95,WSW,240,8.7,21.8,76,0.00,,,0.16,VWS V14.01,2013-02-20 00:02:00,
2013-02-19 19:07:00,16.2,10.2,29.95,SW,228,8.1,17.9,77,0.00,,,0.16,VWS V14.01,2013-02-20 00:07:00,
2013-02-19 19:12:00,16.0,10.1,29.95,SW,227,9.4,20.1,77,0.00,,,0.16,VWS V14.01,2013-02-20 00:12:00,
2013-02-19 19:17:00,16.2,10.2,29.95,SW,233,9.4,15.7,77,0.00,,,0.16,VWS V14.01,2013-02-20 00:17:00,
2013-02-19 19:22:00,16.0,10.1,29.95,WSW,242,9.4,15.7,77,0.00,,,0.16,VWS V14.01,2013-02-20 00:22:00,
2013-02-19 19:27:00,16.0,10.1,29.95,SW,229,8.7,14.5,77,0.00,,,0.16,VWS V14.01,2013-02-20 00:27:00,
2013-02-19 19:32:00,16.0,10.1,29.95,WSW,237,8.1,15.7,77,0.00,,,0.16,VWS V14.01,2013-02-20 00:32:00,
2013-02-19 19:37:00,16.0,10.4,29.95,SW,232,8.1,14.5,78,0.00,,,0.16,VWS V14.01,2013-02-20 00:37:00,
2013-02-19 19:42:00,16.0,10.4,29.95,WSW,238,7.4,13.4,78,0.00,,,0.16,VWS V14.01,2013-02-20 00:42:00,
2013-02-19 19:48:00,16.0,10.4,29.95,SW,234,8.7,15.7,78,0.00,,,0.16,VWS V14.01,2013-02-20 00:48:00,
2013-02-19 19:53:00,16.0,10.4,29.95,SW,232,8.7,15.7,78,0.00,,,0.16,VWS V14.01,2013-02-20 00:53:00,
2013-02-19 19:59:00,16.2,10.5,29.98,WSW,237,6.0,16.8,78,0.00,,,0.16,VWS V14.01,2013-02-20 00:59:00,
2013-02-19 20:04:00,16.2,10.5,29.98,SW,236,8.1,14.5,78,0.00,,,0.16,VWS V14.01,2013-02-20 01:04:00,
2013-02-19 20:09:00,16.2,10.5,29.98,WSW,241,6.7,15.7,78,0.00,,,0.16,VWS V14.01,2013-02-20 01:09:00,
2013-02-19 20:14:00,16.2,10.5,29.98,WSW,254,7.4,14.5,78,0.00,,,0.16,VWS V14.01,2013-02-20 01:14:00,
2013-02-19 20:21:00,16.2,10.5,29.98,SW,234,7.4,13.4,78,0.00,,,0.16,VWS V14.01,2013-02-20 01:21:00,
2013-02-19 20:27:00,16.2,10.5,29.98,SW,235,6.7,14.5,78,0.00,,,0.16,VWS V14.01,2013-02-20 01:27:00,
2013-02-19 20:32:00,16.2,10.8,29.98,WSW,242,8.1,13.4,79,0.00,,,0.16,VWS V14.01,2013-02-20 01:32:00,
2013-02-19 20:37:00,16.2,10.8,29.98,WSW,241,8.1,14.5,79,0.00,,,0.16,VWS V14.01,2013-02-20 01:37:00,
2013-02-19 20:43:00,16.2,10.8,29.98,WSW,249,8.1,13.4,79,0.00,,,0.16,VWS V14.01,2013-02-20 01:43:00,
2013-02-19 20:48:00,16.3,11.0,29.98,WSW,246,4.7,12.3,79,0.00,,,0.16,VWS V14.01,2013-02-20 01:48:00,
2013-02-19 20:53:00,16.2,10.8,29.98,WSW,251,5.4,12.3,79,0.00,,,0.16,VWS V14.01,2013-02-20 01:53:00,
2013-02-19 20:58:00,16.3,11.0,29.98,SW,227,5.4,10.1,79,0.00,,,0.16,VWS V14.01,2013-02-20 01:58:00,
2013-02-19 21:03:00,16.3,11.0,29.98,West,259,6.0,10.1,79,0.00,,,0.16,VWS V14.01,2013-02-20 02:03:00,
2013-02-19 21:09:00,16.5,11.2,29.98,WSW,239,6.0,10.1,79,0.00,,,0.16,VWS V14.01,2013-02-20 02:09:00,
2013-02-19 21:15:00,16.3,11.0,29.98,West,260,0.0,7.8,79,0.00,,,0.16,VWS V14.01,2013-02-20 02:15:00,
2013-02-19 21:22:00,16.5,11.2,29.98,West,260,3.4,6.7,79,0.00,,,0.16,VWS V14.01,2013-02-20 02:22:00,
2013-02-19 21:27:00,16.5,11.2,30.01,SW,235,0.0,7.8,79,0.00,,,0.16,VWS V14.01,2013-02-20 02:27:00,
2013-02-19 21:32:00,16.5,11.2,30.01,WSW,256,0.0,7.8,79,0.00,,,0.16,VWS V14.01,2013-02-20 02:32:00,
2013-02-19 21:37:00,16.5,11.2,30.01,WNW,290,0.0,0.0,79,0.00,,,0.16,VWS V14.01,2013-02-20 02:37:00,
2013-02-19 21:42:00,16.5,11.2,30.01,WSW,253,0.0,0.0,79,0.00,,,0.16,VWS V14.01,2013-02-20 02:42:00,
2013-02-19 21:48:00,16.7,11.3,30.01,West,276,6.0,10.1,79,0.00,,,0.16,VWS V14.01,2013-02-20 02:48:00,
2013-02-19 21:54:00,16.7,11.3,30.01,NW,305,4.7,8.9,79,0.00,,,0.16,VWS V14.01,2013-02-20 02:54:00,
2013-02-19 21:59:00,16.5,10.9,30.01,WSW,246,0.0,8.9,78,0.00,,,0.16,VWS V14.01,2013-02-20 02:59:00,
2013-02-19 22:06:00,16.5,10.9,30.01,WNW,283,3.4,6.7,78,0.00,,,0.16,VWS V14.01,2013-02-20 03:06:00,
2013-02-19 22:12:00,16.5,10.9,30.01,West,266,0.0,0.0,78,0.00,,,0.16,VWS V14.01,2013-02-20 03:12:00,
2013-02-19 22:17:00,16.5,10.9,30.01,West,279,0.0,0.0,78,0.00,,,0.16,VWS V14.01,2013-02-20 03:17:00,
2013-02-19 22:23:00,16.3,10.7,30.01,NW,313,0.0,0.0,78,0.00,,,0.16,VWS V14.01,2013-02-20 03:23:00,
2013-02-19 22:29:00,16.3,10.7,30.01,SW,234,5.4,8.9,78,0.00,,,0.16,VWS V14.01,2013-02-20 03:29:00,
2013-02-19 22:35:00,16.2,10.5,30.01,West,261,4.0,6.7,78,0.00,,,0.16,VWS V14.01,2013-02-20 03:35:00,
2013-02-19 22:41:00,16.2,10.2,30.01,West,265,3.4,6.7,77,0.00,,,0.16,VWS V14.01,2013-02-20 03:41:00,
2013-02-19 22:47:00,16.2,10.2,30.01,WSW,241,0.0,5.6,77,0.00,,,0.16,VWS V14.01,2013-02-20 03:47:00,
2013-02-19 22:52:00,16.2,10.2,30.01,West,268,0.0,0.0,77,0.00,,,0.16,VWS V14.01,2013-02-20 03:52:00,
2013-02-19 22:57:00,16.2,10.2,30.01,WSW,243,4.0,6.7,77,0.00,,,0.16,VWS V14.01,2013-02-20 03:57:00,
2013-02-19 23:02:00,16.2,10.2,30.01,SW,234,0.0,0.0,77,0.00,,,0.16,VWS V14.01,2013-02-20 04:02:00,
2013-02-19 23:08:00,16.2,10.2,30.01,West,273,0.0,7.8,77,0.00,,,0.16,VWS V14.01,2013-02-20 04:08:00,
2013-02-19 23:14:00,16.2,10.2,30.01,WSW,244,4.7,7.8,77,0.00,,,0.16,VWS V14.01,2013-02-20 04:14:00,
2013-02-19 23:19:00,16.2,10.2,30.01,WSW,252,5.4,8.9,77,0.00,,,0.16,VWS V14.01,2013-02-20 04:19:00,
2013-02-19 23:26:00,16.2,10.2,30.01,WSW,240,0.0,0.0,77,0.00,,,0.16,VWS V14.01,2013-02-20 04:26:00,
2013-02-19 23:32:00,16.2,10.2,30.01,West,264,3.4,5.6,77,0.00,,,0.16,VWS V14.01,2013-02-20 04:32:00,
2013-02-19 23:38:00,16.2,10.2,30.01,WNW,291,4.7,10.1,77,0.00,,,0.16,VWS V14.01,2013-02-20 04:38:00,
2013-02-19 23:43:00,16.0,10.1,30.01,WNW,287,0.0,7.8,77,0.00,,,0.16,VWS V14.01,2013-02-20 04:43:00,
2013-02-19 23:48:00,16.0,10.1,30.01,WNW,286,3.4,7.8,77,0.00,,,0.16,VWS V14.01,2013-02-20 04:48:00,
2013-02-19 23:53:00,16.0,10.1,30.01,WSW,244,4.7,8.9,77,0.00,,,0.16,VWS V14.01,2013-02-20 04:53:00,
2013-02-19 23:58:00,16.0,10.1,30.04,WSW,240,0.0,7.8,77,0.00,,,0.16,VWS V14.01,2013-02-20 04:58:00,